sensor_id;sensor_type;location;lat;lon;timestamp;P1;durP1;ratioP1;P2;durP2;ratioP2
39104;SDS011;46464;51.154;13.812;2023-02-28T00:00:23;10.73;;;6.82;;
39104;SDS011;46464;51.154;13.812;2023-02-28T00:02:50;9.57;;;6.18;;
39104;SDS011;46464;51.154;13.812;2023-02-28T00:05:17;10.35;;;7.05;;
39104;SDS011;46464;51.154;13.812;2023-02-28T00:07:45;14.37;;;7.63;;
39104;SDS011;46464;51.154;13.812;2023-02-28T00:12:40;11.30;;;6.17;;
39104;SDS011;46464;51.154;13.812;2023-02-28T00:15:08;11.93;;;6.77;;
39104;SDS011;46464;51.154;13.812;2023-02-28T00:17:37;9.23;;;6.93;;
39104;SDS011;46464;51.154;13.812;2023-02-28T00:20:04;10.53;;;6.93;;
39104;SDS011;46464;51.154;13.812;2023-02-28T00:22:39;11.40;;;7.20;;
39104;SDS011;46464;51.154;13.812;2023-02-28T00:25:13;13.53;;;6.97;;
39104;SDS011;46464;51.154;13.812;2023-02-28T00:27:57;10.33;;;6.37;;
39104;SDS011;46464;51.154;13.812;2023-02-28T00:30:23;13.07;;;7.18;;
39104;SDS011;46464;51.154;13.812;2023-02-28T00:32:50;8.35;;;5.60;;
39104;SDS011;46464;51.154;13.812;2023-02-28T00:37:43;12.13;;;6.30;;
39104;SDS011;46464;51.154;13.812;2023-02-28T00:40:10;11.60;;;6.05;;
39104;SDS011;46464;51.154;13.812;2023-02-28T00:42:38;12.03;;;7.13;;
39104;SDS011;46464;51.154;13.812;2023-02-28T00:45:05;12.23;;;6.23;;
39104;SDS011;46464;51.154;13.812;2023-02-28T00:47:32;9.45;;;5.97;;
39104;SDS011;46464;51.154;13.812;2023-02-28T00:49:59;10.52;;;6.32;;
39104;SDS011;46464;51.154;13.812;2023-02-28T00:52:26;10.20;;;6.30;;
39104;SDS011;46464;51.154;13.812;2023-02-28T00:54:52;9.90;;;6.22;;
39104;SDS011;46464;51.154;13.812;2023-02-28T00:57:19;9.35;;;5.75;;
39104;SDS011;46464;51.154;13.812;2023-02-28T00:59:45;10.60;;;6.03;;
39104;SDS011;46464;51.154;13.812;2023-02-28T01:02:12;10.85;;;6.32;;
39104;SDS011;46464;51.154;13.812;2023-02-28T01:04:39;9.35;;;5.22;;
39104;SDS011;46464;51.154;13.812;2023-02-28T01:07:05;9.20;;;5.57;;
39104;SDS011;46464;51.154;13.812;2023-02-28T01:09:32;6.47;;;4.20;;
39104;SDS011;46464;51.154;13.812;2023-02-28T01:11:58;8.93;;;5.07;;
39104;SDS011;46464;51.154;13.812;2023-02-28T01:14:25;8.63;;;5.65;;
39104;SDS011;46464;51.154;13.812;2023-02-28T01:16:51;7.97;;;4.97;;
39104;SDS011;46464;51.154;13.812;2023-02-28T01:19:18;8.25;;;5.22;;
39104;SDS011;46464;51.154;13.812;2023-02-28T01:21:44;9.95;;;5.47;;
39104;SDS011;46464;51.154;13.812;2023-02-28T01:24:11;9.32;;;5.35;;
39104;SDS011;46464;51.154;13.812;2023-02-28T01:26:37;11.20;;;5.63;;
39104;SDS011;46464;51.154;13.812;2023-02-28T01:29:04;9.73;;;5.70;;
39104;SDS011;46464;51.154;13.812;2023-02-28T01:31:30;8.55;;;5.38;;
39104;SDS011;46464;51.154;13.812;2023-02-28T01:33:57;8.13;;;5.97;;
39104;SDS011;46464;51.154;13.812;2023-02-28T01:36:24;9.05;;;5.32;;
39104;SDS011;46464;51.154;13.812;2023-02-28T01:38:51;9.25;;;5.28;;
39104;SDS011;46464;51.154;13.812;2023-02-28T01:41:19;9.30;;;4.90;;
39104;SDS011;46464;51.154;13.812;2023-02-28T01:46:14;7.93;;;5.18;;
39104;SDS011;46464;51.154;13.812;2023-02-28T01:48:45;9.70;;;5.43;;
39104;SDS011;46464;51.154;13.812;2023-02-28T01:51:18;9.27;;;5.43;;
39104;SDS011;46464;51.154;13.812;2023-02-28T01:53:51;8.03;;;4.80;;
39104;SDS011;46464;51.154;13.812;2023-02-28T01:56:23;8.80;;;5.87;;
39104;SDS011;46464;51.154;13.812;2023-02-28T01:58:52;10.70;;;5.47;;
39104;SDS011;46464;51.154;13.812;2023-02-28T02:01:20;8.97;;;5.17;;
39104;SDS011;46464;51.154;13.812;2023-02-28T02:03:49;9.23;;;5.10;;
39104;SDS011;46464;51.154;13.812;2023-02-28T02:06:22;8.13;;;4.87;;
39104;SDS011;46464;51.154;13.812;2023-02-28T02:08:50;8.23;;;5.20;;
39104;SDS011;46464;51.154;13.812;2023-02-28T02:11:19;8.57;;;5.17;;
39104;SDS011;46464;51.154;13.812;2023-02-28T02:13:52;10.30;;;5.40;;
39104;SDS011;46464;51.154;13.812;2023-02-28T02:25:42;8.93;;;5.45;;
39104;SDS011;46464;51.154;13.812;2023-02-28T02:39:30;7.43;;;5.37;;
39104;SDS011;46464;51.154;13.812;2023-02-28T02:42:05;7.57;;;4.22;;
39104;SDS011;46464;51.154;13.812;2023-02-28T02:44:46;8.30;;;5.10;;
39104;SDS011;46464;51.154;13.812;2023-02-28T02:47:20;9.73;;;5.77;;
39104;SDS011;46464;51.154;13.812;2023-02-28T02:49:54;11.73;;;6.13;;
39104;SDS011;46464;51.154;13.812;2023-02-28T02:52:25;8.53;;;5.70;;
39104;SDS011;46464;51.154;13.812;2023-02-28T02:55:00;7.90;;;5.20;;
39104;SDS011;46464;51.154;13.812;2023-02-28T02:57:37;8.30;;;5.53;;
39104;SDS011;46464;51.154;13.812;2023-02-28T03:00:11;10.00;;;5.83;;
39104;SDS011;46464;51.154;13.812;2023-02-28T03:02:40;8.67;;;5.60;;
39104;SDS011;46464;51.154;13.812;2023-02-28T03:05:20;8.20;;;5.47;;
39104;SDS011;46464;51.154;13.812;2023-02-28T03:07:50;9.97;;;6.10;;
39104;SDS011;46464;51.154;13.812;2023-02-28T03:10:27;9.55;;;5.93;;
39104;SDS011;46464;51.154;13.812;2023-02-28T03:13:09;9.53;;;6.20;;
39104;SDS011;46464;51.154;13.812;2023-02-28T03:21:21;10.13;;;6.07;;
39104;SDS011;46464;51.154;13.812;2023-02-28T03:24:21;10.67;;;5.43;;
39104;SDS011;46464;51.154;13.812;2023-02-28T03:26:57;10.90;;;5.90;;
39104;SDS011;46464;51.154;13.812;2023-02-28T03:29:39;11.87;;;6.40;;
39104;SDS011;46464;51.154;13.812;2023-02-28T03:32:24;10.27;;;6.40;;
39104;SDS011;46464;51.154;13.812;2023-02-28T03:37:39;11.17;;;6.50;;
39104;SDS011;46464;51.154;13.812;2023-02-28T03:40:13;10.90;;;5.93;;
39104;SDS011;46464;51.154;13.812;2023-02-28T03:42:44;8.77;;;6.20;;
39104;SDS011;46464;51.154;13.812;2023-02-28T03:45:16;10.07;;;6.67;;
39104;SDS011;46464;51.154;13.812;2023-02-28T03:47:57;10.67;;;6.40;;
39104;SDS011;46464;51.154;13.812;2023-02-28T03:50:44;10.80;;;6.33;;
39104;SDS011;46464;51.154;13.812;2023-02-28T03:56:19;10.60;;;6.00;;
39104;SDS011;46464;51.154;13.812;2023-02-28T03:58:55;11.10;;;5.83;;
39104;SDS011;46464;51.154;13.812;2023-02-28T04:01:47;11.02;;;5.97;;
39104;SDS011;46464;51.154;13.812;2023-02-28T04:04:15;8.70;;;5.57;;
39104;SDS011;46464;51.154;13.812;2023-02-28T04:06:43;9.77;;;6.40;;
39104;SDS011;46464;51.154;13.812;2023-02-28T04:09:11;10.60;;;6.80;;
39104;SDS011;46464;51.154;13.812;2023-02-28T04:11:48;10.80;;;6.57;;
39104;SDS011;46464;51.154;13.812;2023-02-28T04:14:17;10.33;;;5.97;;
39104;SDS011;46464;51.154;13.812;2023-02-28T04:19:12;11.00;;;6.47;;
39104;SDS011;46464;51.154;13.812;2023-02-28T04:21:43;9.47;;;5.80;;
39104;SDS011;46464;51.154;13.812;2023-02-28T04:24:12;10.70;;;6.40;;
39104;SDS011;46464;51.154;13.812;2023-02-28T04:26:41;11.37;;;6.30;;
39104;SDS011;46464;51.154;13.812;2023-02-28T04:29:11;9.23;;;5.53;;
39104;SDS011;46464;51.154;13.812;2023-02-28T04:31:39;10.13;;;6.50;;
39104;SDS011;46464;51.154;13.812;2023-02-28T04:38:59;12.15;;;6.47;;
39104;SDS011;46464;51.154;13.812;2023-02-28T04:41:25;11.18;;;6.72;;
39104;SDS011;46464;51.154;13.812;2023-02-28T04:43:56;12.73;;;6.70;;
39104;SDS011;46464;51.154;13.812;2023-02-28T04:46:22;13.07;;;7.75;;
39104;SDS011;46464;51.154;13.812;2023-02-28T04:48:49;13.02;;;7.53;;
39104;SDS011;46464;51.154;13.812;2023-02-28T04:51:17;12.77;;;7.22;;
39104;SDS011;46464;51.154;13.812;2023-02-28T04:53:44;11.90;;;6.83;;
39104;SDS011;46464;51.154;13.812;2023-02-28T04:56:11;12.70;;;7.45;;
39104;SDS011;46464;51.154;13.812;2023-02-28T04:58:40;10.90;;;6.97;;
39104;SDS011;46464;51.154;13.812;2023-02-28T05:03:54;12.43;;;7.10;;
39104;SDS011;46464;51.154;13.812;2023-02-28T05:06:22;12.03;;;7.47;;
39104;SDS011;46464;51.154;13.812;2023-02-28T05:08:51;10.27;;;6.97;;
39104;SDS011;46464;51.154;13.812;2023-02-28T05:11:22;12.03;;;7.70;;
39104;SDS011;46464;51.154;13.812;2023-02-28T05:13:51;12.20;;;8.13;;
39104;SDS011;46464;51.154;13.812;2023-02-28T05:16:18;13.73;;;7.70;;
39104;SDS011;46464;51.154;13.812;2023-02-28T05:18:45;13.93;;;7.60;;
39104;SDS011;46464;51.154;13.812;2023-02-28T05:21:21;13.40;;;7.95;;
39104;SDS011;46464;51.154;13.812;2023-02-28T05:23:50;13.83;;;7.67;;
39104;SDS011;46464;51.154;13.812;2023-02-28T05:26:17;10.73;;;7.53;;
39104;SDS011;46464;51.154;13.812;2023-02-28T05:28:44;13.93;;;7.05;;
39104;SDS011;46464;51.154;13.812;2023-02-28T05:31:10;12.23;;;6.53;;
39104;SDS011;46464;51.154;13.812;2023-02-28T05:36:04;13.73;;;7.38;;
39104;SDS011;46464;51.154;13.812;2023-02-28T05:40:57;11.60;;;7.38;;
39104;SDS011;46464;51.154;13.812;2023-02-28T05:43:23;14.43;;;7.72;;
39104;SDS011;46464;51.154;13.812;2023-02-28T05:45:50;13.38;;;7.30;;
39104;SDS011;46464;51.154;13.812;2023-02-28T05:48:16;12.95;;;8.20;;
39104;SDS011;46464;51.154;13.812;2023-02-28T05:50:44;14.93;;;8.90;;
39104;SDS011;46464;51.154;13.812;2023-02-28T05:53:12;12.87;;;8.23;;
39104;SDS011;46464;51.154;13.812;2023-02-28T05:55:38;14.07;;;8.07;;
39104;SDS011;46464;51.154;13.812;2023-02-28T05:58:05;17.08;;;8.57;;
39104;SDS011;46464;51.154;13.812;2023-02-28T06:00:31;12.52;;;7.90;;
39104;SDS011;46464;51.154;13.812;2023-02-28T06:02:58;11.88;;;7.30;;
39104;SDS011;46464;51.154;13.812;2023-02-28T06:05:27;15.83;;;8.07;;
39104;SDS011;46464;51.154;13.812;2023-02-28T06:07:54;14.50;;;8.93;;
39104;SDS011;46464;51.154;13.812;2023-02-28T06:10:20;13.00;;;7.00;;
39104;SDS011;46464;51.154;13.812;2023-02-28T06:12:47;12.77;;;7.82;;
39104;SDS011;46464;51.154;13.812;2023-02-28T06:15:14;15.00;;;8.07;;
39104;SDS011;46464;51.154;13.812;2023-02-28T06:17:41;13.50;;;8.73;;
39104;SDS011;46464;51.154;13.812;2023-02-28T06:20:09;14.77;;;9.23;;
39104;SDS011;46464;51.154;13.812;2023-02-28T06:22:39;16.30;;;9.07;;
39104;SDS011;46464;51.154;13.812;2023-02-28T06:27:32;15.23;;;9.50;;
39104;SDS011;46464;51.154;13.812;2023-02-28T06:29:59;16.50;;;10.53;;
39104;SDS011;46464;51.154;13.812;2023-02-28T06:32:26;20.33;;;10.85;;
39104;SDS011;46464;51.154;13.812;2023-02-28T06:34:52;18.73;;;10.55;;
39104;SDS011;46464;51.154;13.812;2023-02-28T06:37:19;18.55;;;10.27;;
39104;SDS011;46464;51.154;13.812;2023-02-28T06:39:46;14.80;;;8.73;;
39104;SDS011;46464;51.154;13.812;2023-02-28T06:42:12;11.98;;;7.68;;
39104;SDS011;46464;51.154;13.812;2023-02-28T06:44:39;13.73;;;7.72;;
39104;SDS011;46464;51.154;13.812;2023-02-28T06:47:05;13.52;;;8.25;;
39104;SDS011;46464;51.154;13.812;2023-02-28T06:52:01;15.57;;;9.67;;
39104;SDS011;46464;51.154;13.812;2023-02-28T06:54:28;12.33;;;8.67;;
39104;SDS011;46464;51.154;13.812;2023-02-28T06:56:54;15.27;;;8.80;;
39104;SDS011;46464;51.154;13.812;2023-02-28T06:59:21;17.92;;;10.52;;
39104;SDS011;46464;51.154;13.812;2023-02-28T07:01:47;15.32;;;9.02;;
39104;SDS011;46464;51.154;13.812;2023-02-28T07:04:14;17.63;;;10.88;;
39104;SDS011;46464;51.154;13.812;2023-02-28T07:06:40;16.95;;;10.38;;
39104;SDS011;46464;51.154;13.812;2023-02-28T07:09:07;18.67;;;11.15;;
39104;SDS011;46464;51.154;13.812;2023-02-28T07:14:00;15.65;;;9.40;;
39104;SDS011;46464;51.154;13.812;2023-02-28T07:16:27;18.40;;;10.43;;
39104;SDS011;46464;51.154;13.812;2023-02-28T07:18:53;19.70;;;11.80;;
39104;SDS011;46464;51.154;13.812;2023-02-28T07:21:21;16.90;;;11.23;;
39104;SDS011;46464;51.154;13.812;2023-02-28T07:23:47;16.75;;;10.90;;
39104;SDS011;46464;51.154;13.812;2023-02-28T07:26:16;20.03;;;11.97;;
39104;SDS011;46464;51.154;13.812;2023-02-28T07:28:48;18.03;;;11.57;;
39104;SDS011;46464;51.154;13.812;2023-02-28T07:31:16;18.47;;;10.57;;
39104;SDS011;46464;51.154;13.812;2023-02-28T07:33:43;21.03;;;12.40;;
39104;SDS011;46464;51.154;13.812;2023-02-28T07:36:12;19.30;;;12.25;;
39104;SDS011;46464;51.154;13.812;2023-02-28T07:38:45;18.23;;;11.43;;
39104;SDS011;46464;51.154;13.812;2023-02-28T07:41:20;21.27;;;12.50;;
39104;SDS011;46464;51.154;13.812;2023-02-28T07:43:48;21.20;;;11.73;;
39104;SDS011;46464;51.154;13.812;2023-02-28T07:48:43;20.47;;;11.90;;
39104;SDS011;46464;51.154;13.812;2023-02-28T07:51:13;18.17;;;11.23;;
39104;SDS011;46464;51.154;13.812;2023-02-28T07:53:40;18.58;;;11.93;;
39104;SDS011;46464;51.154;13.812;2023-02-28T07:56:06;19.77;;;12.40;;
39104;SDS011;46464;51.154;13.812;2023-02-28T07:58:33;18.30;;;10.95;;
39104;SDS011;46464;51.154;13.812;2023-02-28T08:01:10;17.57;;;10.77;;
39104;SDS011;46464;51.154;13.812;2023-02-28T08:06:04;17.17;;;10.13;;
39104;SDS011;46464;51.154;13.812;2023-02-28T08:08:32;18.93;;;11.70;;
39104;SDS011;46464;51.154;13.812;2023-02-28T08:10:59;17.40;;;11.40;;
39104;SDS011;46464;51.154;13.812;2023-02-28T08:13:30;21.73;;;11.80;;
39104;SDS011;46464;51.154;13.812;2023-02-28T08:16:00;19.33;;;12.37;;
39104;SDS011;46464;51.154;13.812;2023-02-28T08:18:28;18.83;;;11.47;;
39104;SDS011;46464;51.154;13.812;2023-02-28T08:20:57;19.95;;;12.55;;
39104;SDS011;46464;51.154;13.812;2023-02-28T08:23:26;19.07;;;11.93;;
39104;SDS011;46464;51.154;13.812;2023-02-28T08:25:59;17.77;;;11.07;;
39104;SDS011;46464;51.154;13.812;2023-02-28T08:28:25;21.40;;;12.13;;
39104;SDS011;46464;51.154;13.812;2023-02-28T08:30:59;25.37;;;14.53;;
39104;SDS011;46464;51.154;13.812;2023-02-28T08:33:26;17.23;;;11.98;;
39104;SDS011;46464;51.154;13.812;2023-02-28T08:35:54;18.07;;;12.10;;
39104;SDS011;46464;51.154;13.812;2023-02-28T08:38:21;21.20;;;11.50;;
39104;SDS011;46464;51.154;13.812;2023-02-28T08:40:48;21.07;;;11.67;;
39104;SDS011;46464;51.154;13.812;2023-02-28T08:43:15;22.10;;;12.70;;
39104;SDS011;46464;51.154;13.812;2023-02-28T08:45:42;18.20;;;11.18;;
39104;SDS011;46464;51.154;13.812;2023-02-28T08:48:09;20.48;;;10.63;;
39104;SDS011;46464;51.154;13.812;2023-02-28T08:50:36;17.80;;;11.02;;
39104;SDS011;46464;51.154;13.812;2023-02-28T08:53:02;18.30;;;11.45;;
39104;SDS011;46464;51.154;13.812;2023-02-28T08:55:29;17.25;;;11.30;;
39104;SDS011;46464;51.154;13.812;2023-02-28T08:57:55;17.13;;;11.50;;
39104;SDS011;46464;51.154;13.812;2023-02-28T09:00:22;18.48;;;11.18;;
39104;SDS011;46464;51.154;13.812;2023-02-28T09:02:48;18.27;;;11.05;;
39104;SDS011;46464;51.154;13.812;2023-02-28T09:05:15;20.83;;;12.73;;
39104;SDS011;46464;51.154;13.812;2023-02-28T09:07:41;21.42;;;10.68;;
39104;SDS011;46464;51.154;13.812;2023-02-28T09:10:08;15.02;;;9.90;;
39104;SDS011;46464;51.154;13.812;2023-02-28T09:12:36;17.33;;;11.10;;
39104;SDS011;46464;51.154;13.812;2023-02-28T09:15:05;23.08;;;10.25;;
39104;SDS011;46464;51.154;13.812;2023-02-28T09:17:32;15.53;;;10.13;;
39104;SDS011;46464;51.154;13.812;2023-02-28T09:19:59;17.70;;;10.45;;
39104;SDS011;46464;51.154;13.812;2023-02-28T09:22:26;16.17;;;10.23;;
39104;SDS011;46464;51.154;13.812;2023-02-28T09:24:52;15.10;;;9.48;;
39104;SDS011;46464;51.154;13.812;2023-02-28T09:27:19;14.38;;;8.50;;
39104;SDS011;46464;51.154;13.812;2023-02-28T09:29:45;14.70;;;8.70;;
39104;SDS011;46464;51.154;13.812;2023-02-28T09:32:12;12.98;;;8.20;;
39104;SDS011;46464;51.154;13.812;2023-02-28T09:34:43;13.17;;;8.10;;
39104;SDS011;46464;51.154;13.812;2023-02-28T09:37:10;13.05;;;7.47;;
39104;SDS011;46464;51.154;13.812;2023-02-28T09:39:36;9.85;;;7.22;;
39104;SDS011;46464;51.154;13.812;2023-02-28T09:42:05;14.18;;;8.40;;
39104;SDS011;46464;51.154;13.812;2023-02-28T09:44:38;12.83;;;7.83;;
39104;SDS011;46464;51.154;13.812;2023-02-28T09:50:11;12.73;;;8.23;;
39104;SDS011;46464;51.154;13.812;2023-02-28T09:52:41;14.20;;;8.68;;
39104;SDS011;46464;51.154;13.812;2023-02-28T09:57:41;15.52;;;8.38;;
39104;SDS011;46464;51.154;13.812;2023-02-28T10:05:56;18.17;;;10.03;;
39104;SDS011;46464;51.154;13.812;2023-02-28T10:08:34;13.18;;;8.45;;
39104;SDS011;46464;51.154;13.812;2023-02-28T10:11:16;15.20;;;9.02;;
39104;SDS011;46464;51.154;13.812;2023-02-28T10:13:56;16.63;;;9.43;;
39104;SDS011;46464;51.154;13.812;2023-02-28T10:19:04;14.85;;;9.20;;
39104;SDS011;46464;51.154;13.812;2023-02-28T10:21:42;12.10;;;7.63;;
39104;SDS011;46464;51.154;13.812;2023-02-28T10:24:17;15.70;;;10.07;;
39104;SDS011;46464;51.154;13.812;2023-02-28T10:26:49;12.35;;;8.00;;
39104;SDS011;46464;51.154;13.812;2023-02-28T10:29:23;14.98;;;9.10;;
39104;SDS011;46464;51.154;13.812;2023-02-28T10:31:49;13.18;;;8.80;;
39104;SDS011;46464;51.154;13.812;2023-02-28T10:34:16;13.85;;;8.60;;
39104;SDS011;46464;51.154;13.812;2023-02-28T10:36:42;13.35;;;9.25;;
39104;SDS011;46464;51.154;13.812;2023-02-28T10:39:52;14.23;;;9.20;;
39104;SDS011;46464;51.154;13.812;2023-02-28T10:42:00;16.38;;;9.35;;
39104;SDS011;46464;51.154;13.812;2023-02-28T10:44:27;13.10;;;8.73;;
39104;SDS011;46464;51.154;13.812;2023-02-28T10:46:54;14.32;;;9.13;;
39104;SDS011;46464;51.154;13.812;2023-02-28T10:49:23;15.60;;;10.73;;
39104;SDS011;46464;51.154;13.812;2023-02-28T10:51:54;15.35;;;10.55;;
39104;SDS011;46464;51.154;13.812;2023-02-28T10:54:30;11.27;;;9.10;;
39104;SDS011;46464;51.154;13.812;2023-02-28T10:57:20;18.27;;;10.20;;
39104;SDS011;46464;51.154;13.812;2023-02-28T10:59:52;14.80;;;10.95;;
39104;SDS011;46464;51.154;13.812;2023-02-28T11:02:39;17.52;;;11.32;;
39104;SDS011;46464;51.154;13.812;2023-02-28T11:05:28;18.88;;;11.30;;
39104;SDS011;46464;51.154;13.812;2023-02-28T11:08:04;15.32;;;10.27;;
39104;SDS011;46464;51.154;13.812;2023-02-28T11:10:36;17.00;;;11.23;;
39104;SDS011;46464;51.154;13.812;2023-02-28T11:13:03;18.20;;;11.18;;
39104;SDS011;46464;51.154;13.812;2023-02-28T11:15:31;18.52;;;11.90;;
39104;SDS011;46464;51.154;13.812;2023-02-28T11:20:37;15.18;;;11.38;;
39104;SDS011;46464;51.154;13.812;2023-02-28T11:23:05;14.43;;;10.05;;
39104;SDS011;46464;51.154;13.812;2023-02-28T11:25:39;19.92;;;11.80;;
39104;SDS011;46464;51.154;13.812;2023-02-28T11:36:21;20.33;;;12.68;;
39104;SDS011;46464;51.154;13.812;2023-02-28T11:38:54;16.35;;;11.52;;
39104;SDS011;46464;51.154;13.812;2023-02-28T11:44:18;20.70;;;12.50;;
39104;SDS011;46464;51.154;13.812;2023-02-28T11:46:58;18.60;;;12.63;;
39104;SDS011;46464;51.154;13.812;2023-02-28T11:49:45;19.27;;;11.90;;
39104;SDS011;46464;51.154;13.812;2023-02-28T11:55:17;16.05;;;11.18;;
39104;SDS011;46464;51.154;13.812;2023-02-28T12:06:28;17.38;;;12.25;;
39104;SDS011;46464;51.154;13.812;2023-02-28T12:09:23;15.73;;;10.82;;
39104;SDS011;46464;51.154;13.812;2023-02-28T12:28:17;17.75;;;11.43;;
39104;SDS011;46464;51.154;13.812;2023-02-28T12:31:33;17.90;;;12.50;;
39104;SDS011;46464;51.154;13.812;2023-02-28T12:33:50;18.38;;;11.50;;
39104;SDS011;46464;51.154;13.812;2023-02-28T12:36:20;17.40;;;12.18;;
39104;SDS011;46464;51.154;13.812;2023-02-28T12:38:56;18.92;;;11.85;;
39104;SDS011;46464;51.154;13.812;2023-02-28T12:41:42;18.60;;;12.15;;
39104;SDS011;46464;51.154;13.812;2023-02-28T12:44:17;21.02;;;12.73;;
39104;SDS011;46464;51.154;13.812;2023-02-28T12:46:51;17.75;;;11.90;;
39104;SDS011;46464;51.154;13.812;2023-02-28T12:49:23;17.23;;;11.27;;
39104;SDS011;46464;51.154;13.812;2023-02-28T12:51:57;19.43;;;11.80;;
39104;SDS011;46464;51.154;13.812;2023-02-28T12:54:29;18.67;;;11.52;;
39104;SDS011;46464;51.154;13.812;2023-02-28T12:57:25;17.35;;;11.38;;
39104;SDS011;46464;51.154;13.812;2023-02-28T12:59:58;17.23;;;11.40;;
39104;SDS011;46464;51.154;13.812;2023-02-28T13:02:33;17.13;;;11.43;;
39104;SDS011;46464;51.154;13.812;2023-02-28T13:05:29;18.70;;;11.48;;
39104;SDS011;46464;51.154;13.812;2023-02-28T13:08:20;20.13;;;12.60;;
39104;SDS011;46464;51.154;13.812;2023-02-28T13:11:07;19.30;;;12.57;;
39104;SDS011;46464;51.154;13.812;2023-02-28T13:14:00;15.95;;;11.82;;
39104;SDS011;46464;51.154;13.812;2023-02-28T13:16:46;18.50;;;12.68;;
39104;SDS011;46464;51.154;13.812;2023-02-28T13:19:19;18.40;;;12.18;;
39104;SDS011;46464;51.154;13.812;2023-02-28T13:21:49;20.17;;;11.95;;
39104;SDS011;46464;51.154;13.812;2023-02-28T13:24:36;19.52;;;13.15;;
39104;SDS011;46464;51.154;13.812;2023-02-28T13:29:51;19.67;;;12.98;;
39104;SDS011;46464;51.154;13.812;2023-02-28T13:32:29;18.60;;;12.20;;
39104;SDS011;46464;51.154;13.812;2023-02-28T13:50:21;18.70;;;12.38;;
39104;SDS011;46464;51.154;13.812;2023-02-28T13:55:46;19.58;;;11.38;;
39104;SDS011;46464;51.154;13.812;2023-02-28T14:01:04;17.23;;;13.15;;
39104;SDS011;46464;51.154;13.812;2023-02-28T14:03:49;19.73;;;13.55;;
39104;SDS011;46464;51.154;13.812;2023-02-28T14:06:25;18.23;;;12.23;;
39104;SDS011;46464;51.154;13.812;2023-02-28T14:08:58;18.83;;;13.52;;
39104;SDS011;46464;51.154;13.812;2023-02-28T14:11:30;19.23;;;12.70;;
39104;SDS011;46464;51.154;13.812;2023-02-28T14:13:59;20.60;;;12.52;;
39104;SDS011;46464;51.154;13.812;2023-02-28T14:16:35;18.85;;;12.48;;
39104;SDS011;46464;51.154;13.812;2023-02-28T14:24:41;18.15;;;12.60;;
39104;SDS011;46464;51.154;13.812;2023-02-28T14:27:21;21.23;;;13.55;;
39104;SDS011;46464;51.154;13.812;2023-02-28T14:30:03;20.55;;;12.35;;
39104;SDS011;46464;51.154;13.812;2023-02-28T14:32:44;17.05;;;12.48;;
39104;SDS011;46464;51.154;13.812;2023-02-28T14:38:04;16.92;;;11.40;;
39104;SDS011;46464;51.154;13.812;2023-02-28T14:40:33;14.82;;;11.43;;
39104;SDS011;46464;51.154;13.812;2023-02-28T14:43:03;18.02;;;12.88;;
39104;SDS011;46464;51.154;13.812;2023-02-28T14:45:32;21.67;;;13.65;;
39104;SDS011;46464;51.154;13.812;2023-02-28T14:48:02;24.70;;;15.07;;
39104;SDS011;46464;51.154;13.812;2023-02-28T14:50:36;40.80;;;14.93;;
39104;SDS011;46464;51.154;13.812;2023-02-28T14:53:03;43.70;;;14.88;;
39104;SDS011;46464;51.154;13.812;2023-02-28T14:55:43;41.80;;;17.17;;
39104;SDS011;46464;51.154;13.812;2023-02-28T15:01:09;31.05;;;19.98;;
39104;SDS011;46464;51.154;13.812;2023-02-28T15:03:37;28.88;;;19.35;;
39104;SDS011;46464;51.154;13.812;2023-02-28T15:06:06;28.10;;;18.13;;
39104;SDS011;46464;51.154;13.812;2023-02-28T15:08:39;19.45;;;14.35;;
39104;SDS011;46464;51.154;13.812;2023-02-28T15:11:12;17.88;;;13.25;;
39104;SDS011;46464;51.154;13.812;2023-02-28T15:13:52;20.88;;;13.80;;
39104;SDS011;46464;51.154;13.812;2023-02-28T15:16:22;19.67;;;13.75;;
39104;SDS011;46464;51.154;13.812;2023-02-28T15:18:53;17.55;;;12.23;;
39104;SDS011;46464;51.154;13.812;2023-02-28T15:21:36;17.77;;;13.00;;
39104;SDS011;46464;51.154;13.812;2023-02-28T15:24:19;16.70;;;12.18;;
39104;SDS011;46464;51.154;13.812;2023-02-28T15:27:23;20.00;;;13.48;;
39104;SDS011;46464;51.154;13.812;2023-02-28T15:29:54;16.83;;;12.40;;
39104;SDS011;46464;51.154;13.812;2023-02-28T15:32:24;16.90;;;12.43;;
39104;SDS011;46464;51.154;13.812;2023-02-28T15:34:56;24.02;;;15.23;;
39104;SDS011;46464;51.154;13.812;2023-02-28T15:37:37;20.85;;;14.13;;
39104;SDS011;46464;51.154;13.812;2023-02-28T15:43:05;19.67;;;13.68;;
39104;SDS011;46464;51.154;13.812;2023-02-28T15:45:49;19.48;;;13.18;;
39104;SDS011;46464;51.154;13.812;2023-02-28T15:48:26;19.85;;;14.32;;
39104;SDS011;46464;51.154;13.812;2023-02-28T15:51:06;21.85;;;13.82;;
39104;SDS011;46464;51.154;13.812;2023-02-28T15:53:39;17.75;;;13.02;;
39104;SDS011;46464;51.154;13.812;2023-02-28T15:58:56;21.08;;;14.80;;
39104;SDS011;46464;51.154;13.812;2023-02-28T16:01:25;19.30;;;13.82;;
39104;SDS011;46464;51.154;13.812;2023-02-28T16:03:59;19.60;;;13.30;;
39104;SDS011;46464;51.154;13.812;2023-02-28T16:06:32;19.02;;;13.43;;
39104;SDS011;46464;51.154;13.812;2023-02-28T16:09:00;18.83;;;12.43;;
39104;SDS011;46464;51.154;13.812;2023-02-28T16:11:27;18.27;;;12.68;;
39104;SDS011;46464;51.154;13.812;2023-02-28T16:13:55;19.10;;;12.93;;
39104;SDS011;46464;51.154;13.812;2023-02-28T16:18:50;19.15;;;12.43;;
39104;SDS011;46464;51.154;13.812;2023-02-28T16:21:19;19.90;;;13.27;;
39104;SDS011;46464;51.154;13.812;2023-02-28T16:23:45;19.60;;;12.68;;
39104;SDS011;46464;51.154;13.812;2023-02-28T16:26:22;17.38;;;12.13;;
39104;SDS011;46464;51.154;13.812;2023-02-28T16:28:50;18.95;;;12.63;;
39104;SDS011;46464;51.154;13.812;2023-02-28T16:31:17;19.42;;;12.88;;
39104;SDS011;46464;51.154;13.812;2023-02-28T16:33:44;19.58;;;12.77;;
39104;SDS011;46464;51.154;13.812;2023-02-28T16:38:49;18.35;;;12.65;;
39104;SDS011;46464;51.154;13.812;2023-02-28T16:41:18;17.73;;;12.60;;
39104;SDS011;46464;51.154;13.812;2023-02-28T16:43:47;18.52;;;12.55;;
39104;SDS011;46464;51.154;13.812;2023-02-28T16:46:15;20.80;;;13.50;;
39104;SDS011;46464;51.154;13.812;2023-02-28T16:48:43;19.17;;;13.15;;
39104;SDS011;46464;51.154;13.812;2023-02-28T16:51:14;19.25;;;13.73;;
39104;SDS011;46464;51.154;13.812;2023-02-28T16:53:42;17.65;;;13.15;;
39104;SDS011;46464;51.154;13.812;2023-02-28T16:56:14;22.92;;;15.57;;
39104;SDS011;46464;51.154;13.812;2023-02-28T16:58:44;20.85;;;15.63;;
39104;SDS011;46464;51.154;13.812;2023-02-28T17:01:10;20.05;;;14.32;;
39104;SDS011;46464;51.154;13.812;2023-02-28T17:03:37;21.40;;;14.32;;
39104;SDS011;46464;51.154;13.812;2023-02-28T17:06:04;19.77;;;14.70;;
39104;SDS011;46464;51.154;13.812;2023-02-28T17:10:59;19.15;;;13.15;;
39104;SDS011;46464;51.154;13.812;2023-02-28T17:13:25;21.60;;;14.27;;
39104;SDS011;46464;51.154;13.812;2023-02-28T17:15:52;24.45;;;15.80;;
39104;SDS011;46464;51.154;13.812;2023-02-28T17:18:19;21.58;;;15.65;;
39104;SDS011;46464;51.154;13.812;2023-02-28T17:20:47;24.55;;;16.20;;
39104;SDS011;46464;51.154;13.812;2023-02-28T17:23:14;24.23;;;17.55;;
39104;SDS011;46464;51.154;13.812;2023-02-28T17:25:42;27.60;;;18.88;;
39104;SDS011;46464;51.154;13.812;2023-02-28T17:28:22;34.42;;;22.30;;